Aérodrome :
LOGIN :

S'inscrire | Disclaimer

   EN    FR    IT 

 










Légende :    VFR   VFR Marginal   IFR   IFR Intensif   IFR Très Intensif
Visi : 
Plafond : 
>= 8 km
>= 3000ft
5 à 8 km
1000 à 3000 ft
1500m à 5 km
500 à 1000 ft
800 à 1500m
200 à 500 ft
< 800m
< 200 ft
Symboles :   Orages  Brouillard  Fortes neiges  Fortes précipitations  Vent > 20 kt
SIGMETs :   Divers  Orages  Givrage  Turbulence  Onde Orograph.  Cendres Volcan.






- Altitude de l'aérodrome : 885 ft
- Code IATA : BAS


LFSB - Bale-Mulhouse

DERNIER METAR :
  • 060500Z 18004KT 4000 BR FEW004 M02/M02 Q1022 TEMPO BKN003

METARs EXPIRÉS :
  • 060430Z 18007KT 3000 BR BKN004 M02/M02 Q1022 TEMPO NSC
  • 060400Z 17006KT 3000 BR OVC003 M01/M02 Q1022 NOSIG
  • 060330Z 17005KT 3000 BR OVC003 M01/M02 Q1022 NOSIG
  • 060300Z AUTO 17005KT 140V200 3800 BR OVC003 M01/M02 Q1022 TEMPO 1200 BECMG NSC
  • 060230Z AUTO 17005KT 140V210 4300 BR BKN003 BKN017 M02/M02 Q1023 TEMPO 1200 BECMG NSC

TAF AMD TAF LFSB
Valide du 06 à 03h jusqu'au 07 à 00h UTC


060328Z 0603/0624 17004KT 3000 BR OVC003
PROB30
TEMPO 0603/0606 1200 BCFG VV///
BECMG 0608/0611 CAVOK
Météo : +33 3 89 90 31 11



MET'MAP, la Météo Aéronautique d'un coup d'oeil ! - Copyright ORBIFLY Décembre 2007 - Disclaimer

ORBIFLY MET'MAP TEAM :

Programmation & Développement : Alexandra Zaïnal
Sur une idée originale de : Baudouin d'Aumeries
Assistance à la programmation : Marc-Olivier Méhu
Soutien technique & logistique : Manuel Goepfert

Contact : metmap@orbifly.com




SOURCES & CREDITS :

   NOAA